Time;durP1;ratioP1;P1;durP2;ratioP2;P2;SDS_P1;SDS_P2;PMS_P1;PMS_P2;Temp;Humidity;BMP_temperature;BMP_pressure;BME280_temperature;BME280_humidity;BME280_pressure;Samples;Min_cycle;Max_cycle;Signal;HPM_P1;HPM_P2
2022/01/25 00:08:21;;;;;;;45.33;10.20;;;;;;;5.96;100.00;99518.44;5122772;28;20603;-73
2022/01/25 00:15:28;;;;;;;49.53;10.20;;;;;;;5.93;100.00;99509.03;5118289;28;20592;-73
2022/01/25 00:26:19;;;;;;;62.17;10.70;;;;;;;5.94;100.00;99499.25;5118429;28;20630;-73
2022/01/25 00:28:50;;;;;;;45.37;9.23;;;;;;;5.97;100.00;99499.66;5121107;28;20604;-73
2022/01/25 00:31:17;;;;;;;37.73;7.90;;;;;;;5.92;100.00;99499.44;5120611;28;21346;-73
2022/01/25 00:33:47;;;;;;;30.80;8.30;;;;;;;5.92;100.00;99496.78;5118541;28;20610;-73
2022/01/25 00:36:17;;;;;;;63.90;10.87;;;;;;;5.95;100.00;99495.56;5118653;28;20600;-73
2022/01/25 00:38:44;;;;;;;44.73;10.33;;;;;;;5.96;100.00;99502.53;5120816;28;20600;-73
2022/01/25 00:41:11;;;;;;;50.70;9.20;;;;;;;5.95;100.00;99492.94;5121883;28;20595;-73
2022/01/25 00:43:38;;;;;;;36.97;8.60;;;;;;;5.93;100.00;99487.00;5120634;28;20604;-73
2022/01/25 00:46:09;;;;;;;53.00;8.90;;;;;;;5.89;100.00;99483.91;5118648;28;20612;-73
2022/01/25 00:48:44;;;;;;;63.40;10.90;;;;;;;5.85;100.00;99482.66;5118438;28;20608;-73
2022/01/25 00:51:23;;;;;;;42.57;7.97;;;;;;;5.84;100.00;99490.78;5121798;28;20602;-73
2022/01/25 00:53:57;;;;;;;40.17;9.30;;;;;;;5.82;100.00;99488.31;5122990;28;20607;-73
2022/01/25 00:56:25;;;;;;;61.10;10.00;;;;;;;5.83;100.00;99489.97;5125859;28;20611;-73
2022/01/25 00:58:52;;;;;;;53.33;9.40;;;;;;;5.81;100.00;99483.22;5122308;28;20654;-73
2022/01/25 01:01:21;;;;;;;38.10;8.50;;;;;;;5.77;100.00;99484.63;5121269;28;20693;-73
2022/01/25 01:03:48;;;;;;;39.20;8.87;;;;;;;5.70;100.00;99486.41;5125116;28;20818;-73
2022/01/25 01:06:15;;;;;;;42.93;8.90;;;;;;;5.68;100.00;99481.31;5125961;28;21225;-73
2022/01/25 01:08:42;;;;;;;28.83;7.30;;;;;;;5.65;100.00;99472.91;5123927;28;20615;-73
2022/01/25 01:11:13;;;;;;;31.03;8.30;;;;;;;5.54;100.00;99481.41;5124071;28;20581;-73
2022/01/25 01:14:03;;;;;;;56.30;9.67;;;;;;;5.58;100.00;99474.69;5123837;28;20630;-73
2022/01/25 01:16:58;;;;;;;35.47;7.73;;;;;;;5.60;100.00;99483.28;5123936;28;20600;-73
2022/01/25 01:30:36;;;;;;;33.60;8.73;;;;;;;5.62;100.00;99462.69;5125024;28;20967;-73
2022/01/25 01:33:36;;;;;;;59.03;9.77;;;;;;;5.56;100.00;99468.78;5121845;28;20605;-73
2022/01/25 01:44:38;;;;;;;33.67;8.23;;;;;;;5.50;100.00;99461.59;5122906;28;20607;-73
2022/01/25 01:47:09;;;;;;;41.90;8.80;;;;;;;5.51;100.00;99457.94;5125308;28;21181;-73
2022/01/25 01:49:41;;;;;;;38.33;9.17;;;;;;;5.47;100.00;99460.16;5124116;28;21499;-73
2022/01/25 01:52:09;;;;;;;30.50;8.53;;;;;;;5.47;100.00;99461.97;5121699;28;20662;-73
2022/01/25 01:54:36;;;;;;;46.73;9.23;;;;;;;5.45;100.00;99465.63;5128364;28;20611;-73
2022/01/25 01:57:04;;;;;;;23.83;7.37;;;;;;;5.44;100.00;99464.00;5121092;28;20607;-73
2022/01/25 01:59:31;;;;;;;52.10;9.30;;;;;;;5.44;100.00;99455.25;5120550;28;20616;-73
2022/01/25 02:01:58;;;;;;;57.63;9.43;;;;;;;5.44;100.00;99464.00;5124724;28;20595;-73
2022/01/25 02:04:25;;;;;;;57.13;9.30;;;;;;;5.49;100.00;99457.28;5124727;28;20653;-73
2022/01/25 02:06:53;;;;;;;48.03;10.23;;;;;;;5.45;100.00;99459.50;5120112;28;20608;-73
2022/01/25 02:09:20;;;;;;;24.07;6.70;;;;;;;5.43;100.00;99454.41;5121407;28;20630;-72
2022/01/25 02:11:47;;;;;;;45.43;7.70;;;;;;;5.38;100.00;99448.84;5122654;28;20603;-73
2022/01/25 02:14:15;;;;;;;40.17;7.73;;;;;;;5.36;100.00;99453.53;5124600;28;20603;-73
2022/01/25 02:16:59;;;;;;;41.20;8.20;;;;;;;5.35;100.00;99454.53;5122235;28;20611;-73
2022/01/25 02:24:51;;;;;;;28.47;8.00;;;;;;;5.31;100.00;99453.31;5123989;28;20986;-73
2022/01/25 02:27:18;;;;;;;42.93;10.33;;;;;;;5.30;100.00;99450.84;5120828;28;20950;-73
2022/01/25 02:29:45;;;;;;;57.67;9.67;;;;;;;5.28;100.00;99439.63;5123700;28;20592;-73
2022/01/25 02:32:13;;;;;;;37.07;8.50;;;;;;;5.26;100.00;99439.78;5124560;28;20599;-73
2022/01/25 02:34:41;;;;;;;54.07;9.33;;;;;;;5.29;100.00;99439.41;5122942;28;20588;-73
2022/01/25 02:37:10;;;;;;;32.60;8.20;;;;;;;5.28;100.00;99429.84;5123606;28;20619;-73
2022/01/25 02:39:42;;;;;;;39.50;7.67;;;;;;;5.28;100.00;99435.16;5124773;28;20600;-73
2022/01/25 02:42:09;;;;;;;42.17;8.37;;;;;;;5.27;100.00;99436.16;5126863;28;20588;-73
2022/01/25 02:44:37;;;;;;;34.30;8.10;;;;;;;5.24;100.00;99431.22;5124873;28;20618;-73
2022/01/25 02:50:01;;;;;;;65.73;9.30;;;;;;;5.28;100.00;99427.19;5065283;28;20615;-73
2022/01/25 02:52:28;;;;;;;54.43;9.50;;;;;;;5.25;100.00;99426.75;5106195;28;20608;-73
2022/01/25 02:54:56;;;;;;;59.50;10.13;;;;;;;5.24;100.00;99418.00;5129098;28;20701;-73
2022/01/25 02:57:24;;;;;;;41.07;9.23;;;;;;;5.29;100.00;99412.94;5119936;28;20604;-74
2022/01/25 02:59:51;;;;;;;57.33;10.30;;;;;;;5.23;100.00;99419.00;5124473;28;20590;-73
2022/01/25 03:02:19;;;;;;;35.10;9.60;;;;;;;5.19;100.00;99412.47;5123781;28;20649;-73
2022/01/25 03:04:46;;;;;;;43.60;8.47;;;;;;;5.17;100.00;99411.81;5121639;28;20665;-73
2022/01/25 03:07:13;;;;;;;50.93;8.23;;;;;;;5.15;100.00;99413.03;5119823;28;20619;-73
2022/01/25 03:09:40;;;;;;;52.67;9.17;;;;;;;5.15;100.00;99419.13;5122809;28;20608;-73
2022/01/25 03:12:14;;;;;;;68.33;10.03;;;;;;;5.14;100.00;99406.91;5124697;28;20675;-73
2022/01/25 03:14:58;;;;;;;49.17;9.00;;;;;;;5.14;100.00;99411.38;5122265;28;20596;-73
2022/01/25 03:17:29;;;;;;;57.20;10.60;;;;;;;5.12;100.00;99405.47;5120443;28;20601;-73
2022/01/25 03:20:06;;;;;;;34.07;8.37;;;;;;;5.08;100.00;99415.59;5119316;28;21052;-73
2022/01/25 03:22:55;;;;;;;50.60;10.13;;;;;;;5.08;100.00;99406.84;5121343;28;20605;-73
2022/01/25 03:25:22;;;;;;;27.50;7.17;;;;;;;5.10;100.00;99418.09;5119953;28;20627;-73
2022/01/25 03:27:50;;;;;;;41.00;8.67;;;;;;;5.09;100.00;99411.13;5122151;28;20606;-73
2022/01/25 03:30:16;;;;;;;35.23;8.00;;;;;;;5.08;100.00;99405.03;5123053;28;20603;-73
2022/01/25 03:32:43;;;;;;;36.83;8.70;;;;;;;5.09;100.00;99404.03;5120493;28;21069;-73
2022/01/25 03:35:10;;;;;;;21.67;7.37;;;;;;;5.10;100.00;99403.03;5119455;28;20635;-73
2022/01/25 03:37:37;;;;;;;56.00;9.07;;;;;;;5.10;100.00;99408.31;5120970;28;20580;-73
2022/01/25 03:40:04;;;;;;;50.07;7.80;;;;;;;5.08;100.00;99412.97;5123009;28;20592;-73
2022/01/25 03:42:35;;;;;;;19.53;7.13;;;;;;;5.05;100.00;99410.69;5122366;28;20595;-73
2022/01/25 03:45:04;;;;;;;30.17;8.60;;;;;;;5.09;100.00;99411.97;5119483;28;20638;-74
2022/01/25 03:47:43;;;;;;;30.30;8.00;;;;;;;5.08;100.00;99409.50;5119777;28;20608;-73
2022/01/25 03:50:09;;;;;;;31.30;8.87;;;;;;;5.06;100.00;99416.81;5122857;28;20665;-73
2022/01/25 03:52:37;;;;;;;50.17;10.50;;;;;;;5.06;100.00;99411.53;5120561;28;21413;-73
2022/01/25 03:55:05;;;;;;;75.03;10.67;;;;;;;5.05;100.00;99404.56;5124981;28;20186;-73
2022/01/25 03:57:31;;;;;;;64.07;9.63;;;;;;;5.05;100.00;99409.88;5119524;28;20608;-73
2022/01/25 03:59:59;;;;;;;48.77;9.17;;;;;;;5.04;100.00;99402.97;5122844;28;21209;-73
2022/01/25 04:02:31;;;;;;;47.70;8.10;;;;;;;5.02;100.00;99397.84;5122701;28;20591;-73
2022/01/25 04:04:59;;;;;;;74.07;10.37;;;;;;;4.99;100.00;99400.88;5110297;28;20613;-73
2022/01/25 04:07:31;;;;;;;49.70;9.57;;;;;;;4.94;100.00;99402.47;5110105;28;21062;-73
2022/01/25 04:09:58;;;;;;;43.50;8.43;;;;;;;4.96;100.00;99398.59;5114559;28;20633;-73
2022/01/25 04:12:24;;;;;;;34.37;8.23;;;;;;;4.94;100.00;99398.00;5122577;28;20607;-73
2022/01/25 04:14:51;;;;;;;19.23;6.37;;;;;;;4.93;100.00;99396.34;5119960;28;20592;-73
2022/01/25 04:17:20;;;;;;;67.13;11.23;;;;;;;4.94;100.00;99387.41;5119674;28;20631;-73
2022/01/25 04:20:09;;;;;;;46.27;8.30;;;;;;;4.94;100.00;99391.88;5121430;28;20604;-73
2022/01/25 04:25:19;;;;;;;87.30;11.00;;;;;;;4.92;100.00;99389.41;5118146;28;20616;-73
2022/01/25 04:27:46;;;;;;;82.57;11.00;;;;;;;4.90;100.00;99384.31;5121121;28;20655;-73
2022/01/25 04:30:13;;;;;;;69.13;10.70;;;;;;;4.91;100.00;99398.38;5121263;28;20776;-73
2022/01/25 04:32:47;;;;;;;69.37;9.83;;;;;;;4.91;100.00;99403.66;5120742;28;20618;-73
2022/01/25 04:35:42;;;;;;;25.97;7.50;;;;;;;4.88;100.00;99398.75;5119586;28;20638;-73
2022/01/25 04:49:14;;;;;;;30.00;8.37;;;;;;;4.84;100.00;99397.47;5119806;28;20596;-73
2022/01/25 04:51:54;;;;;;;34.00;8.63;;;;;;;4.83;100.00;99390.53;5121507;28;20589;-73
2022/01/25 04:54:32;;;;;;;30.13;8.20;;;;;;;4.82;100.00;99392.38;5127241;28;20628;-73
2022/01/25 04:57:11;;;;;;;31.67;9.13;;;;;;;4.83;100.00;99391.38;5110088;28;20612;-73
2022/01/25 04:59:43;;;;;;;51.90;9.63;;;;;;;4.80;100.00;99390.91;5109679;28;20613;-73
2022/01/25 05:02:15;;;;;;;55.87;9.63;;;;;;;4.83;100.00;99401.13;5110038;28;20683;-73
2022/01/25 05:04:46;;;;;;;48.47;8.27;;;;;;;4.80;100.00;99389.09;5110175;28;20613;-73
2022/01/25 05:07:27;;;;;;;66.50;9.50;;;;;;;4.83;100.00;99393.19;5109986;28;20604;-73
2022/01/25 05:09:55;;;;;;;28.93;7.20;;;;;;;4.82;100.00;99386.28;5116855;28;20600;-73
2022/01/25 05:12:33;;;;;;;51.47;8.83;;;;;;;4.80;100.00;99383.81;5121119;28;20601;-73
2022/01/25 05:15:06;;;;;;;41.93;7.93;;;;;;;4.83;100.00;99379.94;5121310;28;20623;-73
2022/01/25 05:17:38;;;;;;;25.23;6.40;;;;;;;4.71;100.00;99381.47;5121127;28;20611;-73
2022/01/25 05:22:50;;;;;;;63.67;9.77;;;;;;;4.70;100.00;99380.69;5121062;28;20600;-73
2022/01/25 05:25:17;;;;;;;52.40;8.60;;;;;;;4.73;100.00;99384.78;5122200;28;20601;-73
2022/01/25 05:27:43;;;;;;;28.80;7.40;;;;;;;4.73;100.00;99384.78;5121489;28;20596;-73
2022/01/25 05:30:11;;;;;;;32.33;7.63;;;;;;;4.72;100.00;99375.19;5122090;28;20588;-73
2022/01/25 05:32:37;;;;;;;45.60;8.30;;;;;;;4.72;100.00;99376.00;5120066;28;20606;-73
2022/01/25 05:35:05;;;;;;;68.53;10.00;;;;;;;4.69;100.00;99375.56;5116997;28;20959;-73
2022/01/25 05:37:36;;;;;;;61.03;9.30;;;;;;;4.64;100.00;99367.38;5118706;28;20589;-73
2022/01/25 05:40:09;;;;;;;62.67;9.20;;;;;;;4.68;100.00;99382.69;5120817;28;20622;-73
2022/01/25 05:43:52;;;;;;;40.27;8.70;;;;;;;4.65;100.00;99383.06;5124159;28;20607;-73
2022/01/25 05:45:57;;;;;;;65.10;9.60;;;;;;;4.65;100.00;99377.75;5122318;28;20616;-73
2022/01/25 05:48:23;;;;;;;46.93;8.60;;;;;;;4.63;100.00;99400.97;5125223;28;21517;-73
2022/01/25 05:50:51;;;;;;;38.27;7.63;;;;;;;4.61;100.00;99397.66;5120340;28;20584;-73
2022/01/25 05:53:18;;;;;;;38.10;9.43;;;;;;;4.59;100.00;99398.88;5126055;28;20603;-73
2022/01/25 05:55:46;;;;;;;53.70;9.53;;;;;;;4.53;100.00;99395.16;5125283;28;20603;-73
2022/01/25 05:58:13;;;;;;;60.60;9.53;;;;;;;4.56;100.00;99396.59;5125832;28;20633;-73
2022/01/25 06:00:40;;;;;;;41.43;9.40;;;;;;;4.62;100.00;99401.13;5123934;28;20627;-74
2022/01/25 06:03:07;;;;;;;47.60;9.33;;;;;;;4.64;100.00;99391.19;5121617;28;20608;-73
2022/01/25 06:05:34;;;;;;;51.10;8.83;;;;;;;4.59;100.00;99393.56;5122564;28;20661;-73
2022/01/25 06:08:00;;;;;;;38.37;8.70;;;;;;;4.60;100.00;99395.22;5123795;28;20612;-73
2022/01/25 06:10:27;;;;;;;38.00;8.53;;;;;;;4.63;100.00;99395.66;5124924;28;20608;-73
2022/01/25 06:12:55;;;;;;;55.57;9.27;;;;;;;4.64;100.00;99402.56;5121258;28;20646;-73
2022/01/25 06:15:23;;;;;;;58.67;10.43;;;;;;;4.68;100.00;99393.25;5120945;28;20597;-73
2022/01/25 06:17:50;;;;;;;69.63;12.67;;;;;;;4.72;100.00;99385.75;5124751;28;20603;-73
2022/01/25 06:20:18;;;;;;;44.10;9.80;;;;;;;4.75;100.00;99395.97;5124447;28;20599;-73
2022/01/25 06:22:45;;;;;;;27.80;8.70;;;;;;;4.77;100.00;99396.59;5122099;28;20603;-73
2022/01/25 06:25:12;;;;;;;59.40;10.40;;;;;;;4.75;100.00;99391.50;5125570;28;20600;-73
2022/01/25 06:27:40;;;;;;;48.00;9.20;;;;;;;4.78;100.00;99404.34;5122881;28;20619;-73
2022/01/25 06:30:10;;;;;;;40.90;9.73;;;;;;;4.73;100.00;99398.00;5122969;28;20623;-73
2022/01/25 06:32:41;;;;;;;40.97;9.20;;;;;;;4.75;100.00;99390.69;5122921;28;20603;-73
2022/01/25 06:35:09;;;;;;;40.40;9.40;;;;;;;4.74;100.00;99397.78;5120356;28;20605;-73
2022/01/25 06:37:36;;;;;;;66.20;12.10;;;;;;;4.60;100.00;99400.50;5121053;28;20603;-73
2022/01/25 06:40:03;;;;;;;69.30;11.63;;;;;;;4.45;100.00;99400.56;5122559;28;20608;-73
2022/01/25 06:42:31;;;;;;;44.27;10.77;;;;;;;4.31;100.00;99401.41;5124625;28;20603;-73
2022/01/25 06:45:01;;;;;;;36.77;10.27;;;;;;;4.37;100.00;99405.94;5120573;28;20617;-73
2022/01/25 06:47:29;;;;;;;78.20;12.83;;;;;;;4.34;100.00;99417.72;5121135;28;20612;-73
2022/01/25 06:49:57;;;;;;;62.13;12.07;;;;;;;4.46;100.00;99406.66;5124798;28;20592;-73
2022/01/25 06:52:23;;;;;;;52.40;10.63;;;;;;;4.55;100.00;99408.19;5125651;28;20600;-73
2022/01/25 06:54:51;;;;;;;65.10;14.70;;;;;;;4.60;100.00;99411.91;5127962;28;20597;-73
2022/01/25 06:57:18;;;;;;;51.00;10.93;;;;;;;4.63;100.00;99408.06;5108815;28;20607;-73
2022/01/25 06:59:44;;;;;;;53.77;13.03;;;;;;;4.67;100.00;99412.78;5125141;28;20614;-73
2022/01/25 07:02:13;;;;;;;53.20;12.40;;;;;;;4.72;100.00;99410.41;5126371;28;20608;-73
2022/01/25 07:04:41;;;;;;;56.10;11.03;;;;;;;4.70;100.00;99409.78;5124978;28;20615;-73
2022/01/25 07:07:08;;;;;;;37.73;10.23;;;;;;;4.61;100.00;99407.44;5122670;28;20623;-73
2022/01/25 07:09:36;;;;;;;68.10;13.60;;;;;;;4.61;100.00;99421.47;5123164;28;20634;-73
2022/01/25 07:12:03;;;;;;;83.37;14.10;;;;;;;4.73;100.00;99416.53;5125559;28;21087;-73
2022/01/25 07:14:30;;;;;;;50.63;13.37;;;;;;;4.70;100.00;99411.59;5123917;28;20584;-73
2022/01/25 07:16:57;;;;;;;37.57;11.00;;;;;;;4.67;100.00;99406.69;5120218;28;20630;-74
2022/01/25 07:19:24;;;;;;;43.90;10.67;;;;;;;4.52;100.00;99412.00;5119004;28;20631;-73
2022/01/25 07:21:52;;;;;;;47.33;10.93;;;;;;;4.59;100.00;99415.56;5123355;28;21007;-73
2022/01/25 07:24:18;;;;;;;64.50;14.20;;;;;;;4.30;100.00;99416.47;5129378;28;20591;-73
2022/01/25 07:26:47;;;;;;;81.40;14.13;;;;;;;4.32;100.00;99414.47;5120672;28;20615;-73
2022/01/25 07:29:13;;;;;;;69.50;14.17;;;;;;;4.48;100.00;99417.88;5119615;28;20605;-73
2022/01/25 07:31:40;;;;;;;66.23;12.10;;;;;;;4.48;100.00;99420.53;5120385;28;21061;-73
2022/01/25 07:34:07;;;;;;;45.00;12.67;;;;;;;4.58;100.00;99421.06;5123264;28;20629;-73
2022/01/25 07:36:34;;;;;;;39.40;12.17;;;;;;;4.60;100.00;99413.75;5122477;28;20604;-73
2022/01/25 07:39:03;;;;;;;48.37;10.77;;;;;;;4.64;100.00;99421.09;5118621;28;20619;-73
2022/01/25 07:41:29;;;;;;;30.20;10.60;;;;;;;4.68;100.00;99421.53;5119958;28;20600;-74
2022/01/25 07:43:58;;;;;;;30.10;8.80;;;;;;;4.74;100.00;99420.78;5121685;28;20615;-73
2022/01/25 07:46:25;;;;;;;66.03;12.70;;;;;;;4.74;100.00;99423.44;5123097;28;20615;-73
2022/01/25 07:48:52;;;;;;;35.17;10.10;;;;;;;4.70;100.00;99425.66;5119497;28;20608;-74
2022/01/25 07:51:19;;;;;;;37.73;11.60;;;;;;;4.61;100.00;99428.63;5119490;28;20605;-73
2022/01/25 07:53:46;;;;;;;32.57;9.60;;;;;;;4.51;100.00;99425.44;5128018;28;20604;-73
2022/01/25 07:56:17;;;;;;;43.63;12.17;;;;;;;4.57;100.00;99428.16;5121770;28;20603;-73
2022/01/25 07:58:43;;;;;;;59.60;12.70;;;;;;;4.70;100.00;99427.50;5120485;28;20641;-73
2022/01/25 08:01:10;;;;;;;45.43;11.43;;;;;;;4.54;100.00;99433.00;5119183;28;20605;-74
2022/01/25 08:03:38;;;;;;;64.77;12.03;;;;;;;4.55;100.00;99429.38;5118732;28;20642;-73
2022/01/25 08:06:05;;;;;;;41.70;10.73;;;;;;;4.58;100.00;99431.63;5122729;28;20596;-73
2022/01/25 08:08:33;;;;;;;59.80;12.80;;;;;;;4.51;100.00;99428.09;5122173;28;20611;-73
2022/01/25 08:11:00;;;;;;;67.53;12.80;;;;;;;4.51;100.00;99434.22;5119032;28;20615;-74
2022/01/25 08:13:28;;;;;;;50.67;11.63;;;;;;;4.48;100.00;99428.47;5118506;28;20609;-73
2022/01/25 08:15:54;;;;;;;25.93;9.90;;;;;;;4.57;100.00;99422.06;5110679;28;20631;-73
2022/01/25 08:18:21;;;;;;;40.57;13.23;;;;;;;4.73;100.00;99421.81;5110669;28;20605;-73
2022/01/25 08:20:47;;;;;;;47.13;11.63;;;;;;;4.72;100.00;99421.00;5110786;28;20593;-73
2022/01/25 08:23:14;;;;;;;59.80;11.13;;;;;;;4.68;100.00;99416.25;5114754;28;20611;-74
2022/01/25 08:25:41;;;;;;;47.37;12.00;;;;;;;4.78;100.00;99433.47;5122187;28;20605;-73
2022/01/25 08:28:08;;;;;;;44.50;12.70;;;;;;;4.84;100.00;99429.25;5122529;28;20621;-73
2022/01/25 08:30:36;;;;;;;38.17;11.67;;;;;;;4.84;100.00;99421.31;5121926;28;20600;-73
2022/01/25 08:33:03;;;;;;;38.53;11.20;;;;;;;4.74;100.00;99420.78;5152796;27;20648;-73
2022/01/25 08:35:30;;;;;;;39.03;11.40;;;;;;;4.77;100.00;99421.25;5118311;28;20592;-73
2022/01/25 08:37:56;;;;;;;34.60;10.93;;;;;;;4.84;100.00;99424.78;5122444;28;20600;-73
2022/01/25 08:40:23;;;;;;;58.70;13.80;;;;;;;4.83;100.00;99417.84;5122258;28;20592;-73
2022/01/25 08:42:50;;;;;;;42.67;11.53;;;;;;;4.87;100.00;99424.41;5119183;28;20608;-73
2022/01/25 08:45:17;;;;;;;69.43;13.90;;;;;;;4.84;100.00;99413.38;5118615;28;20608;-73
2022/01/25 08:47:45;;;;;;;60.70;12.87;;;;;;;4.86;100.00;99417.44;5121105;28;20616;-73
2022/01/25 08:50:12;;;;;;;32.90;11.10;;;;;;;4.92;100.00;99415.06;5122520;28;20611;-75
2022/01/25 08:52:39;;;;;;;48.57;13.73;;;;;;;4.78;100.00;99422.88;5121561;28;20592;-76
2022/01/25 08:55:07;;;;;;;61.60;13.23;;;;;;;4.64;100.00;99420.31;5125271;28;20673;-76
2022/01/25 08:57:34;;;;;;;58.87;13.40;;;;;;;4.43;100.00;99420.25;5118314;28;20623;-76
2022/01/25 09:00:01;;;;;;;66.00;14.03;;;;;;;4.32;100.00;99427.69;5122246;28;21168;-76
2022/01/25 09:02:28;;;;;;;50.97;14.30;;;;;;;4.14;100.00;99432.56;5122678;28;20605;-75
2022/01/25 09:04:56;;;;;;;68.10;14.30;;;;;;;4.18;100.00;99433.81;5119095;28;20620;-76
2022/01/25 09:07:23;;;;;;;51.53;13.80;;;;;;;4.43;100.00;99436.13;5118534;28;20631;-75
2022/01/25 09:09:50;;;;;;;57.40;12.17;;;;;;;4.52;100.00;99435.03;5120330;28;20662;-76
2022/01/25 09:12:16;;;;;;;62.73;14.23;;;;;;;4.54;100.00;99433.84;5120829;28;20633;-76
2022/01/25 09:14:44;;;;;;;50.10;12.47;;;;;;;4.58;100.00;99440.38;5121233;28;20594;-76
2022/01/25 09:17:10;;;;;;;48.37;14.30;;;;;;;4.35;100.00;99434.44;5122771;28;20596;-76
2022/01/25 09:19:38;;;;;;;40.40;13.23;;;;;;;4.23;100.00;99436.75;5124199;28;21078;-76
2022/01/25 09:22:06;;;;;;;65.17;14.90;;;;;;;4.11;100.00;99435.56;5126313;28;20600;-76
2022/01/25 09:24:33;;;;;;;48.13;13.33;;;;;;;4.15;100.00;99428.06;5131569;28;20661;-75
2022/01/25 09:27:02;;;;;;;107.40;17.53;;;;;;;4.27;100.00;99424.75;5120517;28;20601;-76
2022/01/25 09:29:28;;;;;;;79.67;14.40;;;;;;;4.56;100.00;99425.69;5122277;28;20631;-76
2022/01/25 09:31:55;;;;;;;52.57;14.33;;;;;;;4.84;100.00;99423.94;5124528;28;20607;-75
2022/01/25 09:34:23;;;;;;;66.77;14.70;;;;;;;5.02;100.00;99424.31;5125914;28;20615;-76
2022/01/25 09:36:50;;;;;;;61.07;14.17;;;;;;;5.09;100.00;99425.19;5121361;28;20864;-76
2022/01/25 09:39:19;;;;;;;50.23;14.33;;;;;;;5.27;100.00;99422.06;5122237;28;20612;-76
2022/01/25 09:41:47;;;;;;;81.83;16.50;;;;;;;5.35;100.00;99428.03;5124658;28;20611;-75
2022/01/25 09:44:15;;;;;;;55.13;15.30;;;;;;;5.04;100.00;99440.03;5125800;28;20615;-76
2022/01/25 09:46:43;;;;;;;51.37;16.33;;;;;;;4.67;100.00;99443.75;5123460;28;20591;-76
2022/01/25 09:49:10;;;;;;;58.67;14.63;;;;;;;4.66;100.00;99450.84;5120944;28;21013;-76
2022/01/25 09:51:41;;;;;;;82.23;15.63;;;;;;;4.73;100.00;99449.09;5123259;28;21121;-75
2022/01/25 09:54:08;;;;;;;54.93;14.10;;;;;;;4.75;100.00;99435.66;5130214;28;20623;-75
2022/01/25 09:56:36;;;;;;;75.77;15.07;;;;;;;4.89;100.00;99432.13;5122802;28;20929;-76
2022/01/25 09:59:03;;;;;;;59.27;15.03;;;;;;;4.83;100.00;99443.47;5121739;28;20600;-75
2022/01/25 10:01:31;;;;;;;60.00;14.63;;;;;;;4.80;100.00;99444.69;5122270;28;20642;-75
2022/01/25 10:03:58;;;;;;;39.03;12.77;;;;;;;4.78;100.00;99444.06;5126021;28;20629;-75
2022/01/25 10:06:31;;;;;;;39.67;13.70;;;;;;;5.01;100.00;99438.59;5126996;28;20629;-75
2022/01/25 10:08:58;;;;;;;67.60;14.40;;;;;;;5.01;100.00;99432.47;5122026;28;21041;-75
2022/01/25 10:11:26;;;;;;;54.57;14.60;;;;;;;5.20;100.00;99440.56;5121761;28;20615;-75
2022/01/25 10:13:57;;;;;;;44.60;15.27;;;;;;;5.09;100.00;99435.78;5125080;28;20603;-75
2022/01/25 10:16:31;;;;;;;60.60;14.80;;;;;;;5.20;100.00;99440.56;5126277;28;20614;-75
2022/01/25 10:19:00;;;;;;;67.60;15.50;;;;;;;5.17;100.00;99433.00;5114200;28;20600;-75
2022/01/25 10:21:30;;;;;;;82.83;16.80;;;;;;;5.14;100.00;99417.50;5113758;28;21001;-75
2022/01/25 10:24:02;;;;;;;80.57;19.33;;;;;;;5.00;100.00;99426.34;5125746;28;20592;-75
2022/01/25 10:26:31;;;;;;;86.77;16.83;;;;;;;4.99;100.00;99430.00;5124851;28;20617;-76
2022/01/25 10:28:59;;;;;;;60.30;15.67;;;;;;;4.99;100.00;99440.59;5120543;28;20627;-75
2022/01/25 10:31:35;;;;;;;66.50;13.60;;;;;;;4.85;100.00;99436.19;5121565;28;21396;-75
2022/01/25 10:34:02;;;;;;;71.60;15.20;;;;;;;4.97;100.00;99439.97;5112820;28;20623;-75
2022/01/25 10:36:28;;;;;;;67.43;15.47;;;;;;;5.05;100.00;99436.34;5112789;28;20625;-75
2022/01/25 10:38:57;;;;;;;69.27;15.17;;;;;;;4.84;100.00;99431.88;5119829;28;20670;-75
2022/01/25 10:41:26;;;;;;;61.30;14.00;;;;;;;4.70;100.00;99435.44;5113092;28;20601;-75
2022/01/25 10:43:54;;;;;;;58.80;14.00;;;;;;;4.83;100.00;99432.88;5113392;28;20616;-75
2022/01/25 10:46:25;;;;;;;41.73;12.87;;;;;;;4.93;100.00;99432.56;5120612;28;20628;-75
2022/01/25 10:48:55;;;;;;;92.77;15.70;;;;;;;4.94;100.00;99435.03;5124120;28;20596;-75
2022/01/25 10:51:24;;;;;;;49.60;15.07;;;;;;;4.85;100.00;99438.84;5122788;28;20630;-75
2022/01/25 10:54:04;;;;;;;47.87;13.40;;;;;;;4.94;100.00;99437.69;5120292;28;21091;-75
2022/01/25 10:56:36;;;;;;;64.47;14.20;;;;;;;4.92;100.00;99439.69;5120118;28;20603;-75
2022/01/25 10:59:05;;;;;;;98.17;14.33;;;;;;;4.68;100.00;99443.53;5120281;28;20940;-75
2022/01/25 11:01:35;;;;;;;42.90;14.40;;;;;;;4.78;100.00;99437.94;5120617;28;20638;-75
2022/01/25 11:04:08;;;;;;;52.23;13.40;;;;;;;4.65;100.00;99435.16;5122676;28;20604;-75
2022/01/25 11:06:35;;;;;;;58.67;13.97;;;;;;;4.61;100.00;99433.91;5123242;28;20611;-75
2022/01/25 11:09:06;;;;;;;104.33;17.33;;;;;;;5.02;100.00;99426.13;5120257;28;20616;-75
2022/01/25 11:11:37;;;;;;;81.90;15.07;;;;;;;5.03;100.00;99423.31;5121044;28;20613;-75
2022/01/25 11:16:48;;;;;;;71.33;16.87;;;;;;;4.90;100.00;99417.91;5119845;28;20619;-75
2022/01/25 11:19:15;;;;;;;48.00;13.40;;;;;;;4.82;100.00;99418.88;5121022;28;20600;-75
2022/01/25 11:21:43;;;;;;;64.00;13.97;;;;;;;5.02;100.00;99415.53;5123987;28;20620;-75
2022/01/25 11:24:13;;;;;;;73.67;14.10;;;;;;;4.78;100.00;99404.34;5134155;28;20615;-75
2022/01/25 11:26:43;;;;;;;41.27;11.60;;;;;;;4.89;100.00;99410.94;5125806;28;20619;-75
2022/01/25 11:29:10;;;;;;;62.43;13.70;;;;;;;4.94;100.00;99408.56;5124524;28;20580;-75
2022/01/25 11:31:40;;;;;;;74.83;16.70;;;;;;;5.10;100.00;99407.50;5127079;28;20617;-75
2022/01/25 11:34:12;;;;;;;77.23;15.40;;;;;;;5.09;100.00;99395.25;5130845;28;20596;-75
2022/01/25 11:36:46;;;;;;;88.57;16.00;;;;;;;5.08;100.00;99394.41;5129778;28;20591;-75
2022/01/25 11:39:16;;;;;;;45.03;11.10;;;;;;;5.05;100.00;99391.34;5126145;28;20981;-75
2022/01/25 11:41:43;;;;;;;41.80;11.50;;;;;;;5.02;100.00;99395.19;5128855;28;20607;-76
2022/01/25 11:44:12;;;;;;;68.37;12.30;;;;;;;5.08;100.00;99388.31;5128925;28;20875;-75
2022/01/25 11:46:42;;;;;;;70.97;15.03;;;;;;;4.87;100.00;99379.41;5124288;28;20659;-74
2022/01/25 11:49:16;;;;;;;60.00;13.50;;;;;;;5.00;100.00;99386.63;5119703;28;20606;-74
2022/01/25 11:51:44;;;;;;;74.53;13.53;;;;;;;5.00;100.00;99376.03;5121996;28;20615;-75
2022/01/25 11:54:11;;;;;;;71.27;13.93;;;;;;;4.97;100.00;99392.31;5123386;28;20611;-75
2022/01/25 11:56:41;;;;;;;43.33;12.83;;;;;;;4.91;100.00;99382.47;5119401;28;20658;-74
2022/01/25 11:59:13;;;;;;;57.33;12.23;;;;;;;5.02;100.00;99384.59;5119420;28;20620;-75
2022/01/25 12:01:40;;;;;;;44.10;11.07;;;;;;;4.66;100.00;99379.41;5120888;28;20592;-74
2022/01/25 12:04:10;;;;;;;41.20;11.77;;;;;;;4.84;100.00;99384.25;5121672;28;20635;-73
2022/01/25 12:06:44;;;;;;;72.83;13.83;;;;;;;4.89;100.00;99381.84;5121406;28;20610;-75
2022/01/25 12:09:17;;;;;;;36.00;9.93;;;;;;;5.08;100.00;99388.31;5117322;28;20612;-76
2022/01/25 12:11:47;;;;;;;39.07;10.77;;;;;;;5.01;100.00;99393.56;5120050;28;20616;-76
2022/01/25 12:14:22;;;;;;;70.50;13.17;;;;;;;4.87;100.00;99383.88;5122491;28;20672;-75
2022/01/25 12:16:50;;;;;;;45.67;11.03;;;;;;;4.86;100.00;99384.88;5119455;28;20596;-75
2022/01/25 12:19:18;;;;;;;43.27;11.00;;;;;;;5.19;100.00;99385.16;5118179;28;20607;-75
2022/01/25 12:22:05;;;;;;;50.43;11.40;;;;;;;5.08;100.00;99378.53;5121573;28;20592;-75
2022/01/25 12:24:36;;;;;;;61.57;11.67;;;;;;;5.10;100.00;99381.84;5128360;28;20607;-75
2022/01/25 12:27:10;;;;;;;61.17;10.43;;;;;;;5.16;100.00;99380.25;5119954;28;20613;-75
2022/01/25 12:29:40;;;;;;;96.03;14.37;;;;;;;5.03;100.00;99367.72;5119094;28;20619;-76
2022/01/25 12:32:21;;;;;;;89.47;12.97;;;;;;;4.94;100.00;99370.69;5122392;28;20595;-75
2022/01/25 12:35:12;;;;;;;61.73;9.60;;;;;;;4.97;100.00;99360.53;5118440;28;20599;-75
2022/01/25 12:38:02;;;;;;;69.53;11.37;;;;;;;4.94;100.00;99355.63;5117104;28;20636;-76